sensor_id;sensor_type;location;lat;lon;timestamp;pressure;altitude;pressure_sealevel;temperature;humidity
63287;BME280;49410;55.708;37.522;2023-03-04T00:02:16;97746.59;;;-0.60;nan
63287;BME280;49410;55.708;37.522;2023-03-04T00:05:07;97741.53;;;-0.63;nan
63287;BME280;49410;55.708;37.522;2023-03-04T00:07:33;97750.53;;;-0.54;nan
63287;BME280;49410;55.708;37.522;2023-03-04T00:10:00;97740.09;;;-0.57;nan
63287;BME280;49410;55.708;37.522;2023-03-04T00:12:27;97728.94;;;-0.63;nan
63287;BME280;49410;55.708;37.522;2023-03-04T00:14:52;97725.09;;;-0.60;nan
63287;BME280;49410;55.708;37.522;2023-03-04T00:17:18;97732.59;;;-0.54;nan
63287;BME280;49410;55.708;37.522;2023-03-04T00:22:59;97720.44;;;-0.58;nan
63287;BME280;49410;55.708;37.522;2023-03-04T00:25:25;97723.69;;;-0.54;nan
63287;BME280;49410;55.708;37.522;2023-03-04T00:27:50;97707.63;;;-0.64;nan
63287;BME280;49410;55.708;37.522;2023-03-04T00:30:16;97718.03;;;-0.61;nan
63287;BME280;49410;55.708;37.522;2023-03-04T00:32:41;97719.06;;;-0.62;nan
63287;BME280;49410;55.708;37.522;2023-03-04T00:35:07;97700.84;;;-0.68;nan
63287;BME280;49410;55.708;37.522;2023-03-04T00:37:33;97693.94;;;-0.71;nan
63287;BME280;49410;55.708;37.522;2023-03-04T00:39:58;97688.16;;;-0.76;nan
63287;BME280;49410;55.708;37.522;2023-03-04T00:42:24;97691.28;;;-0.81;nan
63287;BME280;49410;55.708;37.522;2023-03-04T00:44:49;97708.19;;;-0.70;nan
63287;BME280;49410;55.708;37.522;2023-03-04T00:47:16;97714.00;;;-0.75;nan
63287;BME280;49410;55.708;37.522;2023-03-04T00:49:41;97696.78;;;-0.72;nan
63287;BME280;49410;55.708;37.522;2023-03-04T00:52:07;97697.06;;;-0.75;nan
63287;BME280;49410;55.708;37.522;2023-03-04T00:54:32;97694.53;;;-0.77;nan
63287;BME280;49410;55.708;37.522;2023-03-04T00:56:58;97711.47;;;-0.76;nan
63287;BME280;49410;55.708;37.522;2023-03-04T00:59:23;97708.53;;;-0.83;nan
63287;BME280;49410;55.708;37.522;2023-03-04T01:01:49;97696.69;;;-0.90;nan
63287;BME280;49410;55.708;37.522;2023-03-04T01:04:14;97708.41;;;-0.82;nan
63287;BME280;49410;55.708;37.522;2023-03-04T01:06:40;97699.31;;;-0.81;nan
63287;BME280;49410;55.708;37.522;2023-03-04T01:09:05;97693.13;;;-0.81;nan
63287;BME280;49410;55.708;37.522;2023-03-04T01:11:31;97687.75;;;-0.81;nan
63287;BME280;49410;55.708;37.522;2023-03-04T01:13:56;97692.41;;;-0.73;nan
63287;BME280;49410;55.708;37.522;2023-03-04T01:16:22;97701.00;;;-0.70;nan
63287;BME280;49410;55.708;37.522;2023-03-04T01:18:47;97685.47;;;-0.76;nan
63287;BME280;49410;55.708;37.522;2023-03-04T01:21:13;97692.78;;;-0.68;nan
63287;BME280;49410;55.708;37.522;2023-03-04T01:23:39;97682.22;;;-0.80;nan
63287;BME280;49410;55.708;37.522;2023-03-04T01:26:04;97687.16;;;-0.75;nan
63287;BME280;49410;55.708;37.522;2023-03-04T01:28:30;97697.06;;;-0.75;nan
63287;BME280;49410;55.708;37.522;2023-03-04T01:31:00;97664.75;;;-0.84;nan
63287;BME280;49410;55.708;37.522;2023-03-04T01:33:25;97696.91;;;-0.74;nan
63287;BME280;49410;55.708;37.522;2023-03-04T01:35:51;97684.91;;;-0.80;nan
63287;BME280;49410;55.708;37.522;2023-03-04T01:38:16;97672.81;;;-0.94;nan
63287;BME280;49410;55.708;37.522;2023-03-04T01:40:42;97673.91;;;-0.86;nan
63287;BME280;49410;55.708;37.522;2023-03-04T01:43:14;97686.91;;;-0.82;nan
63287;BME280;49410;55.708;37.522;2023-03-04T01:45:44;97641.66;;;-1.14;nan
63287;BME280;49410;55.708;37.522;2023-03-04T01:48:15;97658.03;;;-0.98;nan
63287;BME280;49410;55.708;37.522;2023-03-04T01:50:42;97669.13;;;-0.83;nan
63287;BME280;49410;55.708;37.522;2023-03-04T01:53:16;97665.28;;;-0.80;nan
63287;BME280;49410;55.708;37.522;2023-03-04T01:55:44;97667.88;;;-0.88;nan
63287;BME280;49410;55.708;37.522;2023-03-04T01:58:11;97649.38;;;-0.91;nan
63287;BME280;49410;55.708;37.522;2023-03-04T02:00:37;97644.72;;;-0.89;nan
63287;BME280;49410;55.708;37.522;2023-03-04T02:03:06;97638.66;;;-1.01;nan
63287;BME280;49410;55.708;37.522;2023-03-04T02:05:34;97641.47;;;-0.93;nan
63287;BME280;49410;55.708;37.522;2023-03-04T02:08:02;97639.25;;;-0.98;nan
63287;BME280;49410;55.708;37.522;2023-03-04T02:10:28;97636.84;;;-1.01;nan
63287;BME280;49410;55.708;37.522;2023-03-04T02:12:54;97635.84;;;-1.00;nan
63287;BME280;49410;55.708;37.522;2023-03-04T02:15:22;97624.16;;;-1.08;nan
63287;BME280;49410;55.708;37.522;2023-03-04T02:17:48;97626.09;;;-1.01;nan
63287;BME280;49410;55.708;37.522;2023-03-04T02:23:10;97605.09;;;-1.15;nan
63287;BME280;49410;55.708;37.522;2023-03-04T02:26:06;97622.44;;;-1.10;nan
63287;BME280;49410;55.708;37.522;2023-03-04T02:28:31;97597.22;;;-1.27;nan
63287;BME280;49410;55.708;37.522;2023-03-04T02:30:57;97598.94;;;-1.26;nan
63287;BME280;49410;55.708;37.522;2023-03-04T02:33:22;97607.97;;;-1.27;nan
63287;BME280;49410;55.708;37.522;2023-03-04T02:35:48;97574.28;;;-1.39;nan
63287;BME280;49410;55.708;37.522;2023-03-04T02:38:13;97596.13;;;-1.34;nan
63287;BME280;49410;55.708;37.522;2023-03-04T02:40:41;97578.53;;;-1.46;nan
63287;BME280;49410;55.708;37.522;2023-03-04T02:43:11;97574.84;;;-1.45;nan
63287;BME280;49410;55.708;37.522;2023-03-04T02:45:43;97566.25;;;-1.49;nan
63287;BME280;49410;55.708;37.522;2023-03-04T02:48:10;97585.84;;;-1.38;nan
63287;BME280;49410;55.708;37.522;2023-03-04T02:50:41;97576.69;;;-1.46;nan
63287;BME280;49410;55.708;37.522;2023-03-04T02:53:07;97565.69;;;-1.43;nan
63287;BME280;49410;55.708;37.522;2023-03-04T02:55:32;97562.56;;;-1.38;nan
63287;BME280;49410;55.708;37.522;2023-03-04T02:57:58;97565.81;;;-1.34;nan
63287;BME280;49410;55.708;37.522;2023-03-04T03:00:24;97568.50;;;-1.44;nan
63287;BME280;49410;55.708;37.522;2023-03-04T03:02:49;97569.31;;;-1.34;nan
63287;BME280;49410;55.708;37.522;2023-03-04T03:05:16;97567.34;;;-1.42;nan
63287;BME280;49410;55.708;37.522;2023-03-04T03:07:42;97562.69;;;-1.39;nan
63287;BME280;49410;55.708;37.522;2023-03-04T03:10:08;97562.00;;;-1.42;nan
63287;BME280;49410;55.708;37.522;2023-03-04T03:12:33;97558.19;;;-1.39;nan
63287;BME280;49410;55.708;37.522;2023-03-04T03:14:59;97552.84;;;-1.39;nan
63287;BME280;49410;55.708;37.522;2023-03-04T03:17:24;97555.63;;;-1.41;nan
63287;BME280;49410;55.708;37.522;2023-03-04T03:19:50;97557.50;;;-1.51;nan
63287;BME280;49410;55.708;37.522;2023-03-04T03:22:16;97553.03;;;-1.60;nan
63287;BME280;49410;55.708;37.522;2023-03-04T03:24:41;97542.84;;;-1.57;nan
63287;BME280;49410;55.708;37.522;2023-03-04T03:27:07;97553.13;;;-1.42;nan
63287;BME280;49410;55.708;37.522;2023-03-04T03:29:32;97550.72;;;-1.45;nan
63287;BME280;49410;55.708;37.522;2023-03-04T03:31:57;97551.13;;;-1.40;nan
63287;BME280;49410;55.708;37.522;2023-03-04T03:34:23;97541.69;;;-1.44;nan
63287;BME280;49410;55.708;37.522;2023-03-04T03:36:49;97528.34;;;-1.54;nan
63287;BME280;49410;55.708;37.522;2023-03-04T03:39:14;97545.22;;;-1.44;nan
63287;BME280;49410;55.708;37.522;2023-03-04T03:41:40;97530.03;;;-1.53;nan
63287;BME280;49410;55.708;37.522;2023-03-04T03:44:06;97523.06;;;-1.46;nan
63287;BME280;49410;55.708;37.522;2023-03-04T03:46:32;97490.72;;;-1.72;nan
63287;BME280;49410;55.708;37.522;2023-03-04T03:48:57;97534.06;;;-1.39;nan
63287;BME280;49410;55.708;37.522;2023-03-04T03:51:23;97525.47;;;-1.43;nan
63287;BME280;49410;55.708;37.522;2023-03-04T03:53:48;97530.53;;;-1.39;nan
63287;BME280;49410;55.708;37.522;2023-03-04T03:56:14;97521.56;;;-1.58;nan
63287;BME280;49410;55.708;37.522;2023-03-04T03:58:39;97527.03;;;-1.50;nan
63287;BME280;49410;55.708;37.522;2023-03-04T04:01:05;97515.16;;;-1.47;nan
63287;BME280;49410;55.708;37.522;2023-03-04T04:03:30;97506.53;;;-1.41;nan
63287;BME280;49410;55.708;37.522;2023-03-04T04:05:56;97490.34;;;-1.49;nan
63287;BME280;49410;55.708;37.522;2023-03-04T04:08:21;97484.38;;;-1.43;nan
63287;BME280;49410;55.708;37.522;2023-03-04T04:10:46;97486.19;;;-1.34;nan
63287;BME280;49410;55.708;37.522;2023-03-04T04:13:12;97493.22;;;-1.33;nan
63287;BME280;49410;55.708;37.522;2023-03-04T04:15:38;97483.78;;;-1.37;nan
63287;BME280;49410;55.708;37.522;2023-03-04T04:18:04;97483.66;;;-1.35;nan
63287;BME280;49410;55.708;37.522;2023-03-04T04:20:30;97486.47;;;-1.37;nan
63287;BME280;49410;55.708;37.522;2023-03-04T04:22:55;97460.31;;;-1.53;nan
63287;BME280;49410;55.708;37.522;2023-03-04T04:25:21;97465.72;;;-1.73;nan
63287;BME280;49410;55.708;37.522;2023-03-04T04:27:47;97477.69;;;-1.57;nan
63287;BME280;49410;55.708;37.522;2023-03-04T04:30:13;97459.50;;;-1.63;nan
63287;BME280;49410;55.708;37.522;2023-03-04T04:32:38;97474.72;;;-1.54;nan
63287;BME280;49410;55.708;37.522;2023-03-04T04:35:04;97480.31;;;-1.47;nan
63287;BME280;49410;55.708;37.522;2023-03-04T04:37:30;97471.44;;;-1.48;nan
63287;BME280;49410;55.708;37.522;2023-03-04T04:39:55;97467.06;;;-1.49;nan
63287;BME280;49410;55.708;37.522;2023-03-04T04:42:22;97459.16;;;-1.50;nan
63287;BME280;49410;55.708;37.522;2023-03-04T04:44:47;97438.28;;;-1.57;nan
63287;BME280;49410;55.708;37.522;2023-03-04T04:47:13;97456.50;;;-1.50;nan
63287;BME280;49410;55.708;37.522;2023-03-04T04:49:38;97467.47;;;-1.44;nan
63287;BME280;49410;55.708;37.522;2023-03-04T04:52:04;97472.69;;;-1.42;nan
63287;BME280;49410;55.708;37.522;2023-03-04T04:54:30;97463.63;;;-1.41;nan
63287;BME280;49410;55.708;37.522;2023-03-04T04:56:55;97475.69;;;-1.27;nan
63287;BME280;49410;55.708;37.522;2023-03-04T04:59:21;97458.78;;;-1.28;nan
63287;BME280;49410;55.708;37.522;2023-03-04T05:01:46;97444.59;;;-1.20;nan
63287;BME280;49410;55.708;37.522;2023-03-04T05:04:12;97445.59;;;-1.21;nan
63287;BME280;49410;55.708;37.522;2023-03-04T05:06:37;97436.88;;;-1.05;nan
63287;BME280;49410;55.708;37.522;2023-03-04T05:09:03;97459.19;;;-0.86;nan
63287;BME280;49410;55.708;37.522;2023-03-04T05:11:29;97437.72;;;-0.86;nan
63287;BME280;49410;55.708;37.522;2023-03-04T05:13:54;97443.03;;;-0.76;nan
63287;BME280;49410;55.708;37.522;2023-03-04T05:16:20;97442.75;;;-0.73;nan
63287;BME280;49410;55.708;37.522;2023-03-04T05:18:45;97441.81;;;-0.64;nan
63287;BME280;49410;55.708;37.522;2023-03-04T05:21:11;97440.59;;;-0.70;nan
63287;BME280;49410;55.708;37.522;2023-03-04T05:23:39;97430.91;;;-0.63;nan
63287;BME280;49410;55.708;37.522;2023-03-04T05:26:07;97435.59;;;-0.65;nan
63287;BME280;49410;55.708;37.522;2023-03-04T05:28:33;97441.25;;;-0.50;nan
63287;BME280;49410;55.708;37.522;2023-03-04T05:30:59;97445.56;;;-0.39;nan
63287;BME280;49410;55.708;37.522;2023-03-04T05:33:25;97430.44;;;-0.40;nan
63287;BME280;49410;55.708;37.522;2023-03-04T05:35:51;97444.94;;;-0.33;nan
63287;BME280;49410;55.708;37.522;2023-03-04T05:38:18;97432.53;;;-0.25;nan
63287;BME280;49410;55.708;37.522;2023-03-04T05:40:45;97434.94;;;-0.22;nan
63287;BME280;49410;55.708;37.522;2023-03-04T05:43:11;97452.63;;;-0.38;nan
63287;BME280;49410;55.708;37.522;2023-03-04T05:45:37;97437.47;;;-0.21;nan
63287;BME280;49410;55.708;37.522;2023-03-04T05:48:03;97414.91;;;-0.28;nan
63287;BME280;49410;55.708;37.522;2023-03-04T05:50:30;97441.16;;;-0.22;nan
63287;BME280;49410;55.708;37.522;2023-03-04T05:52:55;97434.16;;;-0.14;nan
63287;BME280;49410;55.708;37.522;2023-03-04T05:55:21;97430.59;;;-0.15;nan
63287;BME280;49410;55.708;37.522;2023-03-04T05:57:47;97430.81;;;-0.08;nan
63287;BME280;49410;55.708;37.522;2023-03-04T06:00:13;97419.94;;;-0.07;nan
63287;BME280;49410;55.708;37.522;2023-03-04T06:02:40;97418.16;;;0.10;nan
63287;BME280;49410;55.708;37.522;2023-03-04T06:05:07;97403.56;;;0.05;nan
63287;BME280;49410;55.708;37.522;2023-03-04T06:07:33;97413.91;;;0.26;nan
63287;BME280;49410;55.708;37.522;2023-03-04T06:09:58;97415.13;;;0.40;nan
63287;BME280;49410;55.708;37.522;2023-03-04T06:12:24;97391.31;;;0.45;nan
63287;BME280;49410;55.708;37.522;2023-03-04T06:14:50;97401.72;;;0.48;nan
63287;BME280;49410;55.708;37.522;2023-03-04T06:17:15;97385.75;;;0.46;nan
63287;BME280;49410;55.708;37.522;2023-03-04T06:19:41;97389.47;;;0.54;nan
63287;BME280;49410;55.708;37.522;2023-03-04T06:22:08;97401.81;;;0.73;nan
63287;BME280;49410;55.708;37.522;2023-03-04T06:24:34;97391.41;;;0.78;nan
63287;BME280;49410;55.708;37.522;2023-03-04T06:27:00;97361.59;;;0.71;nan
63287;BME280;49410;55.708;37.522;2023-03-04T06:29:26;97393.16;;;1.04;nan
63287;BME280;49410;55.708;37.522;2023-03-04T06:31:51;97383.56;;;1.01;nan
63287;BME280;49410;55.708;37.522;2023-03-04T06:34:18;97386.28;;;1.18;nan
63287;BME280;49410;55.708;37.522;2023-03-04T06:36:44;97390.31;;;1.30;nan
63287;BME280;49410;55.708;37.522;2023-03-04T06:39:09;97391.00;;;1.32;nan
63287;BME280;49410;55.708;37.522;2023-03-04T06:41:35;97374.16;;;1.22;nan
63287;BME280;49410;55.708;37.522;2023-03-04T06:44:01;97377.00;;;1.29;nan
63287;BME280;49410;55.708;37.522;2023-03-04T06:46:27;97365.59;;;1.27;nan
63287;BME280;49410;55.708;37.522;2023-03-04T06:48:52;97384.09;;;1.30;nan
63287;BME280;49410;55.708;37.522;2023-03-04T06:51:18;97370.97;;;1.35;nan
63287;BME280;49410;55.708;37.522;2023-03-04T06:53:44;97375.00;;;1.31;nan
63287;BME280;49410;55.708;37.522;2023-03-04T06:56:11;97371.66;;;1.37;nan
63287;BME280;49410;55.708;37.522;2023-03-04T06:58:37;97365.41;;;1.28;nan
63287;BME280;49410;55.708;37.522;2023-03-04T07:01:11;97367.78;;;1.39;nan
63287;BME280;49410;55.708;37.522;2023-03-04T07:03:36;97356.00;;;1.32;nan
63287;BME280;49410;55.708;37.522;2023-03-04T07:06:02;97355.97;;;1.49;nan
63287;BME280;49410;55.708;37.522;2023-03-04T07:08:27;97347.38;;;1.62;nan
63287;BME280;49410;55.708;37.522;2023-03-04T07:10:53;97350.72;;;1.80;nan
63287;BME280;49410;55.708;37.522;2023-03-04T07:13:18;97334.53;;;1.80;nan
63287;BME280;49410;55.708;37.522;2023-03-04T07:15:44;97334.66;;;1.95;nan
63287;BME280;49410;55.708;37.522;2023-03-04T07:18:09;97334.97;;;2.09;nan
63287;BME280;49410;55.708;37.522;2023-03-04T07:20:35;97314.63;;;1.98;nan
63287;BME280;49410;55.708;37.522;2023-03-04T07:23:01;97318.84;;;1.92;nan
63287;BME280;49410;55.708;37.522;2023-03-04T07:25:26;97322.88;;;1.96;nan
63287;BME280;49410;55.708;37.522;2023-03-04T07:27:52;97307.91;;;1.94;nan
63287;BME280;49410;55.708;37.522;2023-03-04T07:30:18;97306.47;;;2.14;nan
63287;BME280;49410;55.708;37.522;2023-03-04T07:35:08;97446.19;;;2.19;nan
63287;BME280;49410;55.708;37.522;2023-03-04T07:39:59;97300.38;;;2.21;nan
63287;BME280;49410;55.708;37.522;2023-03-04T07:42:25;97290.25;;;2.23;nan
63287;BME280;49410;55.708;37.522;2023-03-04T07:44:50;97293.44;;;2.26;nan
63287;BME280;49410;55.708;37.522;2023-03-04T07:47:16;97298.88;;;2.18;nan
63287;BME280;49410;55.708;37.522;2023-03-04T07:49:41;97301.22;;;2.21;nan
63287;BME280;49410;55.708;37.522;2023-03-04T07:52:07;97286.09;;;2.12;nan
63287;BME280;49410;55.708;37.522;2023-03-04T07:54:33;97293.81;;;2.23;nan
63287;BME280;49410;55.708;37.522;2023-03-04T07:56:58;97294.97;;;2.21;nan
63287;BME280;49410;55.708;37.522;2023-03-04T07:59:24;97277.00;;;2.13;nan
63287;BME280;49410;55.708;37.522;2023-03-04T08:01:49;97248.78;;;1.92;nan
63287;BME280;49410;55.708;37.522;2023-03-04T08:04:15;97264.75;;;1.94;nan
63287;BME280;49410;55.708;37.522;2023-03-04T08:06:40;97237.88;;;1.77;nan
63287;BME280;49410;55.708;37.522;2023-03-04T08:09:07;97284.75;;;2.08;nan
63287;BME280;49410;55.708;37.522;2023-03-04T08:11:35;97283.75;;;2.09;nan
63287;BME280;49410;55.708;37.522;2023-03-04T08:14:01;97254.81;;;1.94;nan
63287;BME280;49410;55.708;37.522;2023-03-04T08:16:27;97270.59;;;2.06;nan
63287;BME280;49410;55.708;37.522;2023-03-04T08:18:55;97268.28;;;2.03;nan
63287;BME280;49410;55.708;37.522;2023-03-04T08:21:22;97260.97;;;2.11;nan
63287;BME280;49410;55.708;37.522;2023-03-04T08:23:49;97278.78;;;2.29;nan
63287;BME280;49410;55.708;37.522;2023-03-04T08:26:23;97243.97;;;2.11;nan
63287;BME280;49410;55.708;37.522;2023-03-04T08:28:49;97260.53;;;2.31;nan
63287;BME280;49410;55.708;37.522;2023-03-04T08:31:16;97267.56;;;2.40;nan
63287;BME280;49410;55.708;37.522;2023-03-04T08:33:42;97248.38;;;2.35;nan
63287;BME280;49410;55.708;37.522;2023-03-04T08:36:07;97225.44;;;2.08;nan
63287;BME280;49410;55.708;37.522;2023-03-04T08:38:33;97239.34;;;2.28;nan
63287;BME280;49410;55.708;37.522;2023-03-04T08:40:59;97243.03;;;2.27;nan
63287;BME280;49410;55.708;37.522;2023-03-04T08:43:25;97241.84;;;2.29;nan
63287;BME280;49410;55.708;37.522;2023-03-04T08:45:52;97231.31;;;2.11;nan
63287;BME280;49410;55.708;37.522;2023-03-04T08:48:18;97241.91;;;2.21;nan
63287;BME280;49410;55.708;37.522;2023-03-04T08:50:45;97219.38;;;2.06;nan
63287;BME280;49410;55.708;37.522;2023-03-04T08:53:11;97224.91;;;2.12;nan
63287;BME280;49410;55.708;37.522;2023-03-04T08:55:37;97222.00;;;2.22;nan
63287;BME280;49410;55.708;37.522;2023-03-04T08:58:04;97210.31;;;2.30;nan
63287;BME280;49410;55.708;37.522;2023-03-04T09:22:20;97170.78;;;3.52;nan
63287;BME280;49410;55.708;37.522;2023-03-04T09:24:46;97181.13;;;3.48;nan
63287;BME280;49410;55.708;37.522;2023-03-04T09:27:11;97158.13;;;3.37;nan
63287;BME280;49410;55.708;37.522;2023-03-04T09:29:37;97172.91;;;3.41;nan
63287;BME280;49410;55.708;37.522;2023-03-04T09:32:02;97163.63;;;3.29;nan
63287;BME280;49410;55.708;37.522;2023-03-04T09:34:28;97125.03;;;3.05;nan
63287;BME280;49410;55.708;37.522;2023-03-04T09:36:53;97152.41;;;3.17;nan
63287;BME280;49410;55.708;37.522;2023-03-04T09:39:19;97136.28;;;2.94;nan
63287;BME280;49410;55.708;37.522;2023-03-04T09:41:47;97133.19;;;2.82;nan
63287;BME280;49410;55.708;37.522;2023-03-04T09:44:29;97143.81;;;2.99;nan
63287;BME280;49410;55.708;37.522;2023-03-04T09:47:00;97109.19;;;3.02;nan
63287;BME280;49410;55.708;37.522;2023-03-04T09:49:27;97126.34;;;3.54;nan
63287;BME280;49410;55.708;37.522;2023-03-04T09:57:52;97110.34;;;3.75;nan
63287;BME280;49410;55.708;37.522;2023-03-04T10:05:41;97092.50;;;3.58;nan
63287;BME280;49410;55.708;37.522;2023-03-04T10:08:13;97090.25;;;3.62;nan
63287;BME280;49410;55.708;37.522;2023-03-04T10:10:41;97094.34;;;3.73;nan
63287;BME280;49410;55.708;37.522;2023-03-04T10:13:18;97067.72;;;3.55;nan
63287;BME280;49410;55.708;37.522;2023-03-04T10:15:47;97079.84;;;3.59;nan
63287;BME280;49410;55.708;37.522;2023-03-04T10:18:21;97083.56;;;3.58;nan
63287;BME280;49410;55.708;37.522;2023-03-04T10:20:51;97068.28;;;3.50;nan
63287;BME280;49410;55.708;37.522;2023-03-04T10:23:21;97064.25;;;3.46;nan
63287;BME280;49410;55.708;37.522;2023-03-04T10:25:50;97054.22;;;3.40;nan
63287;BME280;49410;55.708;37.522;2023-03-04T10:28:28;97026.97;;;3.20;nan
63287;BME280;49410;55.708;37.522;2023-03-04T10:33:35;97050.22;;;3.51;nan
63287;BME280;49410;55.708;37.522;2023-03-04T10:38:36;97053.06;;;3.64;nan
63287;BME280;49410;55.708;37.522;2023-03-04T10:41:15;97036.19;;;3.62;nan
63287;BME280;49410;55.708;37.522;2023-03-04T10:43:41;97035.91;;;3.72;nan
63287;BME280;49410;55.708;37.522;2023-03-04T10:46:11;97031.84;;;3.61;nan
63287;BME280;49410;55.708;37.522;2023-03-04T10:48:39;97013.66;;;3.55;nan
63287;BME280;49410;55.708;37.522;2023-03-04T10:51:23;97014.81;;;3.46;nan
63287;BME280;49410;55.708;37.522;2023-03-04T10:53:55;97016.38;;;3.55;nan
63287;BME280;49410;55.708;37.522;2023-03-04T10:56:38;97017.78;;;3.36;nan
63287;BME280;49410;55.708;37.522;2023-03-04T11:01:54;97005.81;;;3.23;nan
63287;BME280;49410;55.708;37.522;2023-03-04T11:04:24;96994.59;;;3.05;nan
63287;BME280;49410;55.708;37.522;2023-03-04T11:06:51;97003.03;;;3.17;nan
63287;BME280;49410;55.708;37.522;2023-03-04T11:09:26;96999.13;;;3.19;nan
63287;BME280;49410;55.708;37.522;2023-03-04T11:11:54;96993.34;;;3.22;nan
63287;BME280;49410;55.708;37.522;2023-03-04T11:14:39;96985.44;;;3.06;nan
63287;BME280;49410;55.708;37.522;2023-03-04T11:17:39;96982.28;;;2.87;nan
63287;BME280;49410;55.708;37.522;2023-03-04T11:22:38;96966.41;;;2.62;nan
63287;BME280;49410;55.708;37.522;2023-03-04T11:25:20;96970.59;;;2.65;nan
63287;BME280;49410;55.708;37.522;2023-03-04T11:27:54;96970.03;;;2.55;nan
63287;BME280;49410;55.708;37.522;2023-03-04T11:33:15;96953.28;;;2.44;nan
63287;BME280;49410;55.708;37.522;2023-03-04T11:35:47;96945.16;;;2.29;nan
63287;BME280;49410;55.708;37.522;2023-03-04T11:41:08;96939.03;;;2.36;nan
63287;BME280;49410;55.708;37.522;2023-03-04T11:43:41;96946.94;;;2.37;nan
63287;BME280;49410;55.708;37.522;2023-03-04T11:53:42;96936.69;;;2.17;nan
63287;BME280;49410;55.708;37.522;2023-03-04T11:56:41;96931.56;;;2.08;nan
63287;BME280;49410;55.708;37.522;2023-03-04T11:59:59;96925.94;;;1.94;nan
63287;BME280;49410;55.708;37.522;2023-03-04T12:02:21;96931.13;;;1.81;nan
63287;BME280;49410;55.708;37.522;2023-03-04T12:26:44;96842.91;;;1.60;nan
63287;BME280;49410;55.708;37.522;2023-03-04T12:35:32;96864.19;;;1.54;nan
63287;BME280;49410;55.708;37.522;2023-03-04T12:53:38;96836.13;;;1.64;nan
63287;BME280;49410;55.708;37.522;2023-03-04T12:56:35;96840.47;;;1.50;nan
63287;BME280;49410;55.708;37.522;2023-03-04T12:58:56;96822.78;;;1.32;nan
63287;BME280;49410;55.708;37.522;2023-03-04T13:01:30;96819.72;;;1.35;nan
63287;BME280;49410;55.708;37.522;2023-03-04T13:09:55;96817.53;;;1.54;nan
63287;BME280;49410;55.708;37.522;2023-03-04T13:12:23;96795.03;;;1.47;nan
63287;BME280;49410;55.708;37.522;2023-03-04T13:22:46;96773.59;;;1.38;nan
63287;BME280;49410;55.708;37.522;2023-03-04T13:26:06;96793.09;;;1.41;nan
63287;BME280;49410;55.708;37.522;2023-03-04T13:28:35;96781.44;;;1.25;nan
63287;BME280;49410;55.708;37.522;2023-03-04T13:31:14;96770.00;;;1.23;nan
63287;BME280;49410;55.708;37.522;2023-03-04T13:33:47;96781.44;;;1.25;nan
63287;BME280;49410;55.708;37.522;2023-03-04T13:36:33;96775.03;;;1.26;nan
63287;BME280;49410;55.708;37.522;2023-03-04T13:41:46;96752.59;;;1.34;nan
63287;BME280;49410;55.708;37.522;2023-03-04T13:47:11;96741.34;;;1.30;nan
63287;BME280;49410;55.708;37.522;2023-03-04T13:49:40;96748.13;;;1.26;nan
63287;BME280;49410;55.708;37.522;2023-03-04T13:52:40;96751.38;;;1.36;nan
63287;BME280;49410;55.708;37.522;2023-03-04T13:55:37;96745.09;;;1.44;nan
63287;BME280;49410;55.708;37.522;2023-03-04T13:58:24;96726.56;;;1.26;nan
63287;BME280;49410;55.708;37.522;2023-03-04T14:00:53;96725.94;;;1.39;nan
63287;BME280;49410;55.708;37.522;2023-03-04T14:03:28;96714.78;;;1.27;nan
63287;BME280;49410;55.708;37.522;2023-03-04T14:06:10;96727.16;;;1.36;nan
63287;BME280;49410;55.708;37.522;2023-03-04T14:08:35;96714.53;;;1.22;nan
63287;BME280;49410;55.708;37.522;2023-03-04T14:11:01;96703.44;;;1.17;nan
63287;BME280;49410;55.708;37.522;2023-03-04T14:13:26;96706.34;;;1.15;nan
63287;BME280;49410;55.708;37.522;2023-03-04T14:15:54;96704.78;;;0.98;nan
63287;BME280;49410;55.708;37.522;2023-03-04T14:18:21;96708.25;;;1.06;nan
63287;BME280;49410;55.708;37.522;2023-03-04T14:20:49;96699.44;;;1.13;nan
63287;BME280;49410;55.708;37.522;2023-03-04T14:23:32;96707.44;;;1.06;nan
63287;BME280;49410;55.708;37.522;2023-03-04T14:26:07;96701.00;;;1.07;nan
63287;BME280;49410;55.708;37.522;2023-03-04T14:28:42;96687.47;;;1.00;nan
63287;BME280;49410;55.708;37.522;2023-03-04T14:31:20;96684.19;;;0.90;nan
63287;BME280;49410;55.708;37.522;2023-03-04T14:33:52;96691.63;;;1.03;nan
63287;BME280;49410;55.708;37.522;2023-03-04T14:36:22;96685.41;;;1.02;nan
63287;BME280;49410;55.708;37.522;2023-03-04T14:38:51;96679.56;;;0.99;nan
63287;BME280;49410;55.708;37.522;2023-03-04T14:41:30;96684.69;;;1.08;nan
63287;BME280;49410;55.708;37.522;2023-03-04T14:46:45;96680.22;;;1.01;nan
63287;BME280;49410;55.708;37.522;2023-03-04T14:49:12;96677.88;;;0.98;nan
63287;BME280;49410;55.708;37.522;2023-03-04T14:51:40;96673.81;;;1.02;nan
63287;BME280;49410;55.708;37.522;2023-03-04T14:54:21;96646.41;;;0.83;nan
63287;BME280;49410;55.708;37.522;2023-03-04T14:56:49;96674.84;;;1.01;nan
63287;BME280;49410;55.708;37.522;2023-03-04T14:59:14;96669.19;;;0.96;nan
63287;BME280;49410;55.708;37.522;2023-03-04T15:01:40;96662.47;;;0.91;nan
63287;BME280;49410;55.708;37.522;2023-03-04T15:04:10;96629.34;;;0.76;nan
63287;BME280;49410;55.708;37.522;2023-03-04T15:06:38;96644.66;;;0.90;nan
63287;BME280;49410;55.708;37.522;2023-03-04T15:09:20;96641.59;;;0.93;nan
63287;BME280;49410;55.708;37.522;2023-03-04T15:11:50;96656.34;;;0.98;nan
63287;BME280;49410;55.708;37.522;2023-03-04T15:14:56;96645.59;;;0.98;nan
63287;BME280;49410;55.708;37.522;2023-03-04T15:17:35;96658.88;;;0.99;nan
63287;BME280;49410;55.708;37.522;2023-03-04T15:25:05;96643.09;;;0.96;nan
63287;BME280;49410;55.708;37.522;2023-03-04T15:27:30;96633.63;;;1.00;nan
63287;BME280;49410;55.708;37.522;2023-03-04T15:29:58;96609.22;;;0.87;nan
63287;BME280;49410;55.708;37.522;2023-03-04T15:32:28;96628.06;;;1.02;nan
63287;BME280;49410;55.708;37.522;2023-03-04T15:34:54;96635.38;;;1.08;nan
63287;BME280;49410;55.708;37.522;2023-03-04T15:37:27;96621.38;;;0.98;nan
63287;BME280;49410;55.708;37.522;2023-03-04T15:39:55;96627.97;;;1.10;nan
63287;BME280;49410;55.708;37.522;2023-03-04T15:42:22;96631.00;;;0.92;nan
63287;BME280;49410;55.708;37.522;2023-03-04T15:44:47;96632.22;;;1.04;nan